Campbellville (Bellshill Airpark)

CA-0845 · 安大略, 加拿大

使用的METAR站距离机场16 NM。
罗盘
风向 的 风向 180° Campbellville (Bellshill Airpark) 13/31
风: 4 kt, 2 beaufort

2 kt

3 kt
改变
0 ft 1.000 2.000 3.000 4.000 5.000
Cloud Cloud Cloud Cloud Cloud Cloud
BKN 3.700
Cloud Cloud Cloud Cloud Cloud Cloud Cloud Cloud
OVC 5.000
METAR CYKF 020700Z AUTO 18004KT 9SM BKN037 OVC050 04/M04 A3016 RMK SLP224

METAR Campbellville (Bellshill Airpark) - CA-0845

Campbellville (Bellshill Airpark)是,加拿大中的小机场。 该机场位于纬度43,43167和经度-80,02533。 该机场有一条跑道: 13/31. 这个机场没有ICAO代码,我们使用CA-0845作为参考。 机场在Toronto FIR中。

该航空气象观测是针对Region of Waterloo International Airport在2024年3月2日 02:00, 当地时间进行的。

机场观察

风向为180°,速度为4 kt。

可见度为9 mi。

有碎云在3.700 ft的高度 和 乌云密布在5.000 ft的高度。 破损或更高的上限为3.700 ft。

温度为4 °C,阵风为1 °C。 露点为-4 °C,相对湿度为56%。 海平面上的气压为30,16 inHg (QNH)。

白天

今天,太阳从06:53升起,在18:10降落。 这适用于Campbellville (Bellshill Airpark),世界夏令时可能有所不同。 当地时间与世界标准时间之间的时差为-5 小时。 当前,没有夏令时有效。

公司介绍

我们没有关于这个机场的公司信息。

体会

到Vliegles.nl去找飞行课程,跳伞和其他飞行体验。 浏览页面,了解Campbellville (Bellshill Airpark)附近所有可用的活动。 你也可以使用搜索功能来寻找你所在地附近的特定飞行课程、跳伞或其他飞行体验。

跑道

Id 标题 侧风 逆风 侧风 %
13/31 122°-302° 3 kt 2 kt 85 %

逆风成分最大的方向会被突出显示,并用于横风计算。 这并不一定意味着这个方向在使用。

乌云

3.700 ft BKN 碎云
5.000 ft OVC 乌云密布

温度 & 天气

温度 4 °C
露点 -4 °C
相对湿度 56%
风寒 1 °C
Kp-index 1 (0-9)

评论

SLP224海平面压力为30,19 inHg (30,19 inHg)

白天

日出
06:54 (3:48)
中午
12:33
日落
18:12

小工具

你想在你的网站上有一个关于Campbellville (Bellshill Airpark)的当前航空天气(METAR)的小部件吗?

显示HTML代码
?>